createdAt,value
2023-04-21T00:01:50.218Z,10.45
2023-04-21T00:04:16.932Z,10.52
2023-04-21T00:06:43.373Z,10.51
2023-04-21T00:09:09.809Z,10.45
2023-04-21T00:11:36.421Z,10.27
2023-04-21T00:14:02.902Z,10.31
2023-04-21T00:16:29.437Z,10.30
2023-04-21T00:18:55.952Z,10.27
2023-04-21T00:21:22.452Z,10.27
2023-04-21T00:23:48.996Z,10.23
2023-04-21T00:26:15.525Z,10.27
2023-04-21T00:28:42.452Z,10.20
2023-04-21T00:31:08.888Z,10.25
2023-04-21T00:33:35.443Z,10.15
2023-04-21T00:36:02.032Z,10.01
2023-04-21T00:38:28.616Z,10.09
2023-04-21T00:40:55.056Z,10.10
2023-04-21T00:43:21.830Z,9.95
2023-04-21T00:45:48.245Z,9.89
2023-04-21T00:48:14.672Z,9.65
2023-04-21T00:50:41.070Z,9.67
2023-04-21T00:53:07.762Z,9.75
2023-04-21T00:55:34.189Z,9.81
2023-04-21T00:58:03.054Z,9.75
2023-04-21T01:00:30.084Z,9.62
2023-04-21T01:02:56.796Z,9.66
2023-04-21T01:05:23.423Z,9.58
2023-04-21T01:07:49.904Z,9.60
2023-04-21T01:10:16.306Z,9.66
2023-04-21T01:12:42.890Z,9.72
2023-04-21T01:15:09.529Z,9.81
2023-04-21T01:17:36.018Z,9.78
2023-04-21T01:20:02.419Z,9.75
2023-04-21T01:22:28.778Z,9.68
2023-04-21T01:24:55.207Z,9.69
2023-04-21T01:27:22.019Z,9.75
2023-04-21T01:29:48.502Z,9.80
2023-04-21T01:32:15.093Z,9.81
2023-04-21T01:34:41.528Z,9.82
2023-04-21T01:37:08.074Z,9.83
2023-04-21T01:39:34.614Z,9.68
2023-04-21T01:42:01.089Z,9.67
2023-04-21T01:44:27.493Z,9.71
2023-04-21T01:46:53.937Z,9.75
2023-04-21T01:49:20.843Z,9.75
2023-04-21T01:51:47.461Z,9.77
2023-04-21T01:54:13.883Z,9.76
2023-04-21T01:56:40.306Z,9.77
2023-04-21T01:59:06.874Z,9.74
2023-04-21T02:01:35.646Z,9.79
2023-04-21T02:04:02.357Z,9.75
2023-04-21T02:06:28.906Z,9.68
2023-04-21T02:08:55.464Z,9.61
2023-04-21T02:11:21.877Z,9.54
2023-04-21T02:13:48.456Z,9.40
2023-04-21T02:16:15.051Z,9.47
2023-04-21T02:18:41.533Z,9.54
2023-04-21T02:21:08.073Z,9.60
2023-04-21T02:23:34.496Z,9.48
2023-04-21T02:26:01.084Z,9.51
2023-04-21T02:28:27.602Z,9.53
2023-04-21T02:30:54.045Z,9.53
2023-04-21T02:33:20.512Z,9.53
2023-04-21T02:35:47.010Z,9.51
2023-04-21T02:38:13.644Z,9.50
2023-04-21T02:40:40.057Z,9.48
2023-04-21T02:43:06.564Z,9.49
2023-04-21T02:45:33.187Z,9.49
2023-04-21T02:47:59.722Z,9.48
2023-04-21T02:50:26.225Z,9.48
2023-04-21T02:52:52.644Z,9.33
2023-04-21T02:55:19.104Z,9.09
2023-04-21T02:57:45.706Z,9.16
2023-04-21T03:00:12.084Z,9.23
2023-04-21T03:02:38.789Z,9.24
2023-04-21T03:05:05.406Z,9.24
2023-04-21T03:07:32.012Z,9.25
2023-04-21T03:09:58.417Z,9.23
2023-04-21T03:12:24.789Z,9.21
2023-04-21T03:14:51.433Z,9.17
2023-04-21T03:17:18.799Z,9.24
2023-04-21T03:19:46.274Z,9.22
2023-04-21T03:22:12.693Z,9.29
2023-04-21T03:24:39.260Z,9.16
2023-04-21T03:27:05.734Z,9.03
2023-04-21T03:29:32.302Z,8.99
2023-04-21T03:31:58.797Z,9.00
2023-04-21T03:34:25.506Z,8.86
2023-04-21T03:36:51.938Z,8.86
2023-04-21T03:39:20.051Z,8.90
2023-04-21T03:41:47.045Z,8.91
2023-04-21T03:44:13.473Z,8.92
2023-04-21T03:46:39.945Z,8.89
2023-04-21T03:49:06.428Z,8.90
2023-04-21T03:51:32.885Z,8.89
2023-04-21T03:53:59.320Z,8.80
2023-04-21T03:56:25.826Z,8.82
2023-04-21T03:58:52.265Z,8.79
2023-04-21T04:01:18.862Z,8.88
2023-04-21T04:03:45.482Z,8.88
2023-04-21T04:06:12.007Z,8.71
2023-04-21T04:08:38.558Z,8.45
2023-04-21T04:11:04.975Z,8.30
2023-04-21T04:13:32.175Z,8.35
2023-04-21T04:15:58.701Z,8.42
2023-04-21T04:18:25.200Z,8.47
2023-04-21T04:20:52.880Z,8.51
2023-04-21T04:23:19.332Z,8.51
2023-04-21T04:25:45.869Z,8.38
2023-04-21T04:28:12.524Z,8.45
2023-04-21T04:30:39.002Z,8.48
2023-04-21T04:33:05.865Z,8.51
2023-04-21T04:35:32.388Z,8.51
2023-04-21T04:37:58.861Z,8.52
2023-04-21T04:40:25.241Z,8.59
2023-04-21T04:42:51.666Z,8.41
2023-04-21T04:45:18.075Z,8.44
2023-04-21T04:47:44.515Z,8.47
2023-04-21T04:50:11.014Z,8.42
2023-04-21T04:52:37.645Z,8.46
2023-04-21T04:55:04.121Z,8.51
2023-04-21T04:57:30.792Z,8.56
2023-04-21T04:59:57.233Z,8.61
2023-04-21T05:02:23.917Z,8.64
2023-04-21T05:04:50.852Z,8.67
2023-04-21T05:07:18.633Z,8.75
2023-04-21T05:09:45.561Z,8.78
2023-04-21T05:12:14.497Z,8.76
2023-04-21T05:14:41.076Z,8.81
2023-04-21T05:17:07.554Z,8.83
2023-04-21T05:19:34.006Z,8.87
2023-04-21T05:22:00.482Z,8.90
2023-04-21T05:24:26.911Z,8.94
2023-04-21T05:26:53.499Z,8.97
2023-04-21T05:29:20.073Z,9.03
2023-04-21T05:31:46.718Z,9.02
2023-04-21T05:34:13.266Z,9.06
2023-04-21T05:36:39.731Z,9.12
2023-04-21T05:39:06.150Z,9.13
2023-04-21T05:41:32.673Z,9.19
2023-04-21T05:43:59.137Z,9.24
2023-04-21T05:46:25.658Z,9.28
2023-04-21T05:48:52.384Z,9.31
2023-04-21T05:51:18.823Z,9.37
2023-04-21T05:53:45.347Z,9.46
2023-04-21T05:56:11.793Z,9.44
2023-04-21T05:58:38.164Z,9.52
2023-04-21T06:01:04.642Z,9.56
2023-04-21T06:03:31.419Z,9.64
2023-04-21T06:05:58.294Z,9.66
2023-04-21T06:08:24.986Z,9.71
2023-04-21T06:10:51.441Z,9.80
2023-04-21T06:13:17.857Z,9.86
2023-04-21T06:15:48.102Z,9.93
2023-04-21T06:18:14.591Z,9.95
2023-04-21T06:20:41.144Z,10.02
2023-04-21T06:23:07.732Z,10.05
2023-04-21T06:25:34.159Z,10.10
2023-04-21T06:28:00.677Z,10.11
2023-04-21T06:30:27.103Z,10.08
2023-04-21T06:32:53.568Z,10.15
2023-04-21T06:35:19.985Z,10.21
2023-04-21T06:37:46.444Z,10.28
2023-04-21T06:40:13.109Z,10.35
2023-04-21T06:42:39.960Z,10.16
2023-04-21T06:45:06.528Z,10.10
2023-04-21T06:47:32.905Z,10.10
2023-04-21T06:49:59.525Z,10.10
2023-04-21T06:52:26.044Z,10.17
2023-04-21T06:54:52.438Z,10.29
2023-04-21T06:57:18.925Z,10.23
2023-04-21T06:59:45.361Z,10.24
2023-04-21T07:02:11.867Z,10.30
2023-04-21T07:04:38.492Z,10.49
2023-04-21T07:07:05.178Z,10.44
2023-04-21T07:09:31.647Z,10.50
2023-04-21T07:11:58.045Z,10.47
2023-04-21T07:14:24.505Z,10.51
2023-04-21T07:16:51.035Z,10.63
2023-04-21T07:19:18.137Z,10.62
2023-04-21T07:21:44.805Z,10.61
2023-04-21T07:24:11.203Z,10.72
2023-04-21T07:26:37.639Z,10.93
2023-04-21T07:29:04.101Z,10.94
2023-04-21T07:31:30.622Z,10.98
2023-04-21T07:33:57.187Z,11.16
2023-04-21T07:36:23.725Z,11.38
2023-04-21T07:38:50.419Z,11.50
2023-04-21T07:41:16.870Z,11.59
2023-04-21T07:43:43.270Z,11.82
2023-04-21T07:46:09.854Z,12.07
2023-04-21T07:48:36.290Z,12.27
2023-04-21T07:51:02.700Z,12.39
2023-04-21T07:53:29.099Z,12.51
2023-04-21T07:55:55.793Z,12.64
2023-04-21T07:58:22.263Z,12.76
2023-04-21T08:00:48.729Z,12.82
2023-04-21T08:03:15.432Z,12.85
2023-04-21T08:05:42.264Z,12.91
2023-04-21T08:08:08.894Z,12.84
2023-04-21T08:10:35.346Z,12.99
2023-04-21T08:13:01.758Z,13.15
2023-04-21T08:15:28.187Z,13.21
2023-04-21T08:17:54.667Z,13.29
2023-04-21T08:20:21.213Z,13.26
2023-04-21T08:22:48.381Z,13.26
2023-04-21T08:25:15.157Z,13.09
2023-04-21T08:27:41.579Z,13.19
2023-04-21T08:30:08.164Z,13.24
2023-04-21T08:32:34.666Z,13.26
2023-04-21T08:35:01.196Z,13.37
2023-04-21T08:37:27.664Z,13.51
2023-04-21T08:39:54.165Z,13.42
2023-04-21T08:42:20.656Z,13.55
2023-04-21T08:44:47.081Z,13.52
2023-04-21T08:47:13.524Z,13.45
2023-04-21T08:49:39.965Z,13.53
2023-04-21T08:52:06.422Z,13.55
2023-04-21T08:54:32.848Z,13.54
2023-04-21T08:57:11.793Z,13.58
2023-04-21T08:59:41.312Z,13.62
2023-04-21T09:02:08.094Z,13.53
2023-04-21T09:04:34.791Z,13.49
2023-04-21T09:07:01.437Z,13.50
2023-04-21T09:09:28.342Z,13.53
2023-04-21T09:11:54.878Z,13.54
2023-04-21T09:14:21.361Z,13.33
2023-04-21T09:16:47.981Z,13.35
2023-04-21T09:19:14.522Z,13.54
2023-04-21T09:21:40.950Z,13.63
2023-04-21T09:24:07.524Z,13.67
2023-04-21T09:26:39.598Z,13.70
2023-04-21T09:29:06.137Z,13.66
2023-04-21T09:31:32.805Z,13.76
2023-04-21T09:34:01.175Z,13.80
2023-04-21T09:36:28.210Z,13.88
2023-04-21T09:39:15.389Z,13.77
2023-04-21T09:41:41.600Z,13.90
2023-04-21T09:44:08.171Z,13.85
2023-04-21T09:46:34.674Z,13.95
2023-04-21T09:49:01.099Z,14.06
2023-04-21T09:51:42.682Z,14.05
2023-04-21T09:54:28.265Z,13.95
2023-04-21T09:56:56.266Z,13.72
2023-04-21T09:59:23.745Z,13.74
2023-04-21T10:01:51.327Z,13.64
2023-04-21T10:04:18.055Z,13.57
2023-04-21T10:06:45.002Z,13.62
2023-04-21T10:09:11.678Z,13.69
2023-04-21T10:11:38.193Z,13.81
2023-04-21T10:14:05.119Z,13.60
2023-04-21T10:16:33.746Z,13.60
2023-04-21T10:19:00.352Z,13.67
2023-04-21T10:21:26.774Z,13.51
2023-04-21T10:23:53.204Z,13.44
2023-04-21T10:26:19.629Z,13.36
2023-04-21T10:28:46.067Z,13.61
2023-04-21T10:31:12.754Z,13.61
2023-04-21T10:33:39.345Z,13.78
2023-04-21T10:36:05.815Z,13.85
2023-04-21T10:38:33.499Z,13.93
2023-04-21T10:40:59.917Z,14.00
2023-04-21T10:43:26.475Z,13.91
2023-04-21T10:45:53.744Z,13.97
2023-04-21T10:48:20.126Z,13.99
2023-04-21T10:50:46.931Z,14.04
2023-04-21T10:53:13.436Z,13.99
2023-04-21T10:55:39.948Z,14.07
2023-04-21T10:58:06.616Z,14.26
2023-04-21T11:00:33.059Z,14.34
2023-04-21T11:02:59.671Z,14.19
2023-04-21T11:05:26.241Z,14.27
2023-04-21T11:07:52.752Z,14.42
2023-04-21T11:10:19.320Z,14.47
2023-04-21T11:12:45.887Z,14.39
2023-04-21T11:15:13.142Z,14.54
2023-04-21T11:17:39.897Z,14.58
2023-04-21T11:20:06.595Z,14.54
2023-04-21T11:22:33.296Z,14.58
2023-04-21T11:24:59.812Z,14.64
2023-04-21T11:27:27.482Z,14.55
2023-04-21T11:29:54.491Z,14.80
2023-04-21T11:32:20.989Z,14.77
2023-04-21T11:34:47.570Z,14.85
2023-04-21T11:37:13.999Z,14.83
2023-04-21T11:39:42.228Z,14.87
2023-04-21T11:42:08.685Z,14.96
2023-04-21T11:44:35.081Z,15.04
2023-04-21T11:47:01.474Z,15.09
2023-04-21T11:49:27.891Z,15.08
2023-04-21T11:51:54.401Z,15.07
2023-04-21T11:54:20.880Z,15.29
2023-04-21T11:56:47.334Z,15.10
2023-04-21T11:59:13.693Z,15.34
2023-04-21T12:01:40.105Z,15.35
2023-04-21T12:04:06.924Z,15.32
2023-04-21T12:06:33.480Z,15.29
2023-04-21T12:09:00.182Z,15.34
2023-04-21T12:11:26.664Z,15.44
2023-04-21T12:13:53.565Z,15.51
2023-04-21T12:16:19.976Z,15.53
2023-04-21T12:18:46.465Z,15.68
2023-04-21T12:21:13.056Z,15.75
2023-04-21T12:23:39.565Z,15.76
2023-04-21T12:26:06.046Z,15.86
2023-04-21T12:28:32.445Z,15.89
2023-04-21T12:30:58.954Z,15.94
2023-04-21T12:33:25.714Z,15.96
2023-04-21T12:35:52.252Z,16.02
2023-04-21T12:38:18.794Z,15.94
2023-04-21T12:40:45.269Z,16.02
2023-04-21T12:43:11.789Z,16.02
2023-04-21T12:45:38.296Z,16.10
2023-04-21T12:48:04.761Z,16.16
2023-04-21T12:50:31.258Z,16.23
2023-04-21T12:52:57.665Z,16.32
2023-04-21T12:55:24.133Z,16.22
2023-04-21T12:57:52.691Z,16.30
2023-04-21T13:00:19.108Z,16.30
2023-04-21T13:02:46.737Z,16.27
2023-04-21T13:05:13.335Z,16.41
2023-04-21T13:07:39.981Z,16.50
2023-04-21T13:10:06.599Z,16.56
2023-04-21T13:12:33.142Z,16.54
2023-04-21T13:14:59.689Z,16.48
2023-04-21T13:17:26.120Z,16.59
2023-04-21T13:19:52.545Z,16.66
2023-04-21T13:22:19.313Z,16.77
2023-04-21T13:24:45.774Z,16.83
2023-04-21T13:27:12.316Z,16.92
2023-04-21T13:29:38.780Z,16.88
2023-04-21T13:32:05.323Z,16.83
2023-04-21T13:34:32.015Z,17.03
2023-04-21T13:36:58.742Z,17.14
2023-04-21T13:39:25.171Z,17.25
2023-04-21T13:41:53.995Z,17.28
2023-04-21T13:44:20.838Z,17.42
2023-04-21T13:46:47.330Z,17.49
2023-04-21T13:49:13.922Z,17.51
2023-04-21T13:51:40.321Z,17.56
2023-04-21T13:54:06.949Z,17.61
2023-04-21T13:56:33.398Z,17.73
2023-04-21T13:58:59.937Z,17.79
2023-04-21T14:01:26.431Z,17.79
2023-04-21T14:03:53.184Z,17.88
2023-04-21T14:06:19.892Z,17.81
2023-04-21T14:08:46.326Z,17.91
2023-04-21T14:11:12.716Z,18.00
2023-04-21T14:13:47.811Z,18.07
2023-04-21T14:16:18.703Z,18.16
2023-04-21T14:18:45.278Z,18.23
2023-04-21T14:21:11.775Z,18.25
2023-04-21T14:23:38.242Z,18.23
2023-04-21T14:26:04.827Z,18.26
2023-04-21T14:28:31.278Z,18.46
2023-04-21T14:30:57.889Z,18.57
2023-04-21T14:33:24.479Z,18.54
2023-04-21T14:35:50.986Z,18.69
2023-04-21T14:38:17.473Z,18.65
2023-04-21T14:40:43.864Z,18.66
2023-04-21T14:43:10.283Z,18.68
2023-04-21T14:45:36.769Z,18.78
2023-04-21T14:48:04.302Z,18.95
2023-04-21T14:50:30.931Z,19.07
2023-04-21T14:52:57.365Z,19.07
2023-04-21T14:55:23.842Z,18.95
2023-04-21T14:57:50.339Z,18.98
2023-04-21T15:00:16.870Z,18.97
2023-04-21T15:02:43.454Z,18.88
2023-04-21T15:05:11.080Z,18.97
2023-04-21T15:07:37.690Z,19.00
2023-04-21T15:10:04.525Z,19.18
2023-04-21T15:12:31.099Z,19.28
2023-04-21T15:14:57.547Z,19.27
2023-04-21T15:17:24.225Z,19.32
2023-04-21T15:19:50.836Z,19.37
2023-04-21T15:22:17.283Z,19.34
2023-04-21T15:24:45.781Z,19.44
2023-04-21T15:27:12.402Z,19.51
2023-04-21T15:29:38.838Z,19.49
2023-04-21T15:32:05.313Z,19.49
2023-04-21T15:34:31.754Z,19.53
2023-04-21T15:36:58.171Z,19.58
2023-04-21T15:39:24.728Z,19.57
2023-04-21T15:41:51.226Z,19.59
2023-04-21T15:44:18.207Z,19.70
2023-04-21T15:46:44.710Z,19.61
2023-04-21T15:49:11.288Z,19.61
2023-04-21T15:51:37.820Z,19.53
2023-04-21T15:54:04.387Z,19.47
2023-04-21T15:56:30.909Z,19.52
2023-04-21T15:58:57.593Z,19.58
2023-04-21T16:01:24.206Z,19.64
2023-04-21T16:03:51.011Z,19.59
2023-04-21T16:06:17.961Z,19.61
2023-04-21T16:08:44.434Z,19.65
2023-04-21T16:11:10.856Z,19.52
2023-04-21T16:13:37.482Z,19.49
2023-04-21T16:16:03.978Z,19.49
2023-04-21T16:18:30.671Z,19.50
2023-04-21T16:20:57.114Z,19.53
2023-04-21T16:23:24.097Z,19.55
2023-04-21T16:25:52.192Z,19.51
2023-04-21T16:28:18.731Z,19.53
2023-04-21T16:30:45.290Z,19.58
2023-04-21T16:33:11.771Z,19.47
2023-04-21T16:35:38.515Z,19.46
2023-04-21T16:38:05.069Z,19.44
2023-04-21T16:40:31.684Z,19.35
2023-04-21T16:42:58.216Z,19.38
2023-04-21T16:45:24.703Z,19.22
2023-04-21T16:47:51.424Z,19.17
2023-04-21T16:50:17.871Z,19.10
2023-04-21T16:52:44.513Z,19.14
2023-04-21T16:55:11.030Z,19.15
2023-04-21T16:57:37.953Z,19.16
2023-04-21T17:00:04.572Z,19.14
2023-04-21T17:02:33.229Z,19.15
2023-04-21T17:05:00.067Z,19.02
2023-04-21T17:07:26.651Z,18.82
2023-04-21T17:09:53.131Z,18.70
2023-04-21T17:12:19.775Z,18.62
2023-04-21T17:14:46.224Z,18.59
2023-04-21T17:17:12.724Z,18.49
2023-04-21T17:19:39.241Z,18.49
2023-04-21T17:22:05.688Z,18.38
2023-04-21T17:24:44.976Z,18.36
2023-04-21T17:27:17.934Z,18.33
2023-04-21T17:29:44.459Z,18.27
2023-04-21T17:32:11.002Z,18.25
2023-04-21T17:34:38.966Z,18.19
2023-04-21T17:37:06.057Z,18.16
2023-04-21T17:39:32.465Z,18.16
2023-04-21T17:41:59.980Z,18.17
2023-04-21T17:44:26.391Z,18.13
2023-04-21T17:46:53.116Z,18.11
2023-04-21T17:49:19.601Z,18.07
2023-04-21T17:51:45.998Z,18.00
2023-04-21T17:54:12.634Z,17.98
2023-04-21T17:56:39.137Z,17.96
2023-04-21T17:59:05.725Z,17.95
2023-04-21T18:01:32.234Z,17.94
2023-04-21T18:04:00.977Z,17.93
2023-04-21T18:06:28.082Z,17.92
2023-04-21T18:08:55.165Z,17.90
2023-04-21T18:11:22.003Z,17.88
2023-04-21T18:13:48.855Z,17.85
2023-04-21T18:16:16.424Z,17.82
2023-04-21T18:18:44.086Z,17.80
2023-04-21T18:21:10.575Z,17.81
2023-04-21T18:23:37.438Z,17.80
2023-04-21T18:26:04.288Z,17.79
2023-04-21T18:28:30.960Z,17.73
2023-04-21T18:30:57.740Z,17.64
2023-04-21T18:33:25.562Z,17.57
2023-04-21T18:35:52.370Z,17.01
2023-04-21T18:38:19.292Z,17.07
2023-04-21T18:40:45.794Z,17.45
2023-04-21T18:43:13.185Z,17.69
2023-04-21T18:45:43.058Z,17.54
2023-04-21T18:48:10.154Z,17.54
2023-04-21T18:50:37.930Z,17.57
2023-04-21T18:53:04.650Z,17.33
2023-04-21T18:55:31.124Z,17.22
2023-04-21T18:57:57.909Z,17.04
2023-04-21T19:00:24.770Z,17.22
2023-04-21T19:02:51.909Z,17.14
2023-04-21T19:05:19.324Z,16.87
2023-04-21T19:07:46.196Z,16.76
2023-04-21T19:10:13.132Z,16.78
2023-04-21T19:12:40.456Z,16.76
2023-04-21T19:15:07.153Z,16.70
2023-04-21T19:17:33.643Z,16.66
2023-04-21T19:20:01.543Z,16.61
2023-04-21T19:22:28.386Z,16.54
2023-04-21T19:24:55.286Z,16.50
2023-04-21T19:27:24.597Z,16.44
2023-04-21T19:29:50.984Z,16.31
2023-04-21T19:32:17.927Z,16.13
2023-04-21T19:34:45.030Z,16.14
2023-04-21T19:37:12.342Z,16.03
2023-04-21T19:39:39.001Z,16.01
2023-04-21T19:42:06.791Z,16.03
2023-04-21T19:44:33.817Z,16.06
2023-04-21T19:47:00.398Z,16.04
2023-04-21T19:49:28.219Z,16.03
2023-04-21T19:51:54.733Z,16.01
2023-04-21T19:54:21.772Z,16.00
2023-04-21T19:56:48.656Z,15.76
2023-04-21T19:59:16.312Z,15.65
2023-04-21T20:01:42.773Z,15.67
2023-04-21T20:04:11.889Z,15.58
2023-04-21T20:06:39.122Z,15.65
2023-04-21T20:09:05.585Z,15.65
2023-04-21T20:11:32.513Z,15.43
2023-04-21T20:13:59.053Z,15.36
2023-04-21T20:16:25.895Z,15.37
2023-04-21T20:18:52.534Z,15.43
2023-04-21T20:21:19.174Z,15.36
2023-04-21T20:23:45.567Z,15.32
2023-04-21T20:26:12.477Z,15.28
2023-04-21T20:28:39.322Z,15.21
2023-04-21T20:31:05.818Z,15.16
2023-04-21T20:33:34.117Z,15.13
2023-04-21T20:36:00.661Z,15.12
2023-04-21T20:38:27.671Z,15.09
2023-04-21T20:40:54.284Z,15.10
2023-04-21T20:43:20.752Z,15.13
2023-04-21T20:45:47.618Z,14.96
2023-04-21T20:48:14.166Z,14.96
2023-04-21T20:50:42.789Z,15.00
2023-04-21T20:53:11.306Z,14.99
2023-04-21T20:55:38.097Z,14.98
2023-04-21T20:58:04.702Z,14.95
2023-04-21T21:00:31.453Z,14.89
2023-04-21T21:02:58.096Z,14.87
2023-04-21T21:05:24.921Z,14.89
2023-04-21T21:07:51.834Z,14.72
2023-04-21T21:10:18.654Z,14.69
2023-04-21T21:12:45.640Z,14.67
2023-04-21T21:15:12.126Z,14.63
2023-04-21T21:17:38.633Z,14.63
2023-04-21T21:20:05.257Z,14.58
2023-04-21T21:22:31.671Z,14.55
2023-04-21T21:24:58.154Z,14.52
2023-04-21T21:27:24.651Z,14.47
2023-04-21T21:29:51.237Z,14.43
2023-04-21T21:32:17.800Z,14.34
2023-04-21T21:34:44.351Z,14.33
2023-04-21T21:37:11.107Z,14.33
2023-04-21T21:39:37.869Z,14.28
2023-04-21T21:42:04.588Z,14.24
2023-04-21T21:44:31.097Z,14.25
2023-04-21T21:46:57.503Z,14.24
2023-04-21T21:49:26.437Z,14.24
2023-04-21T21:51:52.882Z,14.21
2023-04-21T21:54:19.450Z,14.14
2023-04-21T21:56:45.984Z,14.08
2023-04-21T21:59:13.011Z,14.08
2023-04-21T22:01:39.580Z,14.06
2023-04-21T22:04:08.477Z,13.99
2023-04-21T22:06:34.963Z,13.96
2023-04-21T22:09:01.450Z,13.89
2023-04-21T22:11:27.876Z,13.88
2023-04-21T22:13:54.352Z,13.83
2023-04-21T22:16:21.241Z,13.83
2023-04-21T22:18:47.773Z,13.80
2023-04-21T22:21:14.199Z,13.77
2023-04-21T22:23:40.647Z,13.70
2023-04-21T22:26:07.261Z,13.69
2023-04-21T22:28:33.685Z,13.65
2023-04-21T22:31:00.179Z,13.62
2023-04-21T22:33:26.695Z,13.54
2023-04-21T22:35:53.134Z,13.54
2023-04-21T22:38:19.570Z,13.53
2023-04-21T22:40:46.114Z,13.53
2023-04-21T22:43:12.503Z,13.50
2023-04-21T22:45:40.095Z,13.50
2023-04-21T22:48:06.512Z,13.36
2023-04-21T22:50:32.961Z,13.35
2023-04-21T22:52:59.606Z,13.32
2023-04-21T22:55:26.089Z,13.30
2023-04-21T22:57:52.623Z,13.27
2023-04-21T23:00:19.101Z,13.24
2023-04-21T23:02:45.627Z,13.15
2023-04-21T23:05:12.271Z,13.13
2023-04-21T23:07:38.706Z,13.09
2023-04-21T23:10:05.201Z,13.08
2023-04-21T23:12:31.631Z,13.08
2023-04-21T23:14:58.360Z,13.01
2023-04-21T23:17:24.835Z,12.87
2023-04-21T23:19:51.299Z,12.84
2023-04-21T23:22:17.786Z,12.88
2023-04-21T23:24:44.200Z,12.89
2023-04-21T23:27:10.661Z,12.82
2023-04-21T23:29:37.408Z,12.80
2023-04-21T23:32:04.580Z,12.66
2023-04-21T23:34:31.135Z,12.70
2023-04-21T23:36:57.545Z,12.75
2023-04-21T23:39:24.926Z,12.75
2023-04-21T23:41:51.336Z,12.72
2023-04-21T23:44:17.826Z,12.67
2023-04-21T23:46:45.657Z,12.63
2023-04-21T23:49:12.119Z,12.63
2023-04-21T23:51:38.624Z,12.56
2023-04-21T23:54:05.102Z,12.55
2023-04-21T23:56:31.576Z,12.51
2023-04-21T23:58:58.092Z,12.50
